Whiting, IN (46394)

7:57 AM CST on February 24, 2017 (GMT -0600)
East Side of Chicago | | Change Station

Elev 600 ft 41.69 °N, 87.53 °W | Updated 6 seconds ago

Overcast
Overcast
43.5 °F
Feels Like 44 °F
N
2.0
Wind Variable Wind from NNW
Gusts 3.0 mph

Today
High -- | Low -- °F
--% Chance of Precip.
Yesterday
High -- | Low -- °F
Precip. -- in
Pressure 29.40 in
Visibility 1.5 miles
Clouds Scattered Clouds 11000 ft
Windchill 44 °F
Dew Point 42 °F
Humidity 95%
Rainfall 0.15 in
Snow Depth Not available.
6:32 AM 5:34 PM
Waning Crescent, 5% visible
METAR KGYY 241245Z VRB05KT 1 1/2SM BR SCT110 07/07 A2940 RMK PRESFR
Pressure 29.40 in
Visibility 1.5 miles
Clouds Scattered Clouds 11000 ft
Windchill 44 °F
Dew Point 42 °F
Humidity 95%
Rainfall 0.15 in
Snow Depth Not available.
6:32 AM 5:34 PM
Waning Crescent, 5% visible
METAR KGYY 241245Z VRB05KT 1 1/2SM BR SCT110 07/07 A2940 RMK PRESFR

Get Your Daily Forecast Email!

Thanks for signing up!

Be on the lookout for a verification email in your inbox.

You'll start receiving the daily forecast at 8 AM.

×

10-Day Weather Forecast

Almanac

Astronomy

Feb. 24, 2017 Rise Set
Actual Time
Civil Twilight
Nautical Twilight
Astronomical Twilight
Moon
Length of Visible Light
Length of Day
Tomorrow will be .
, % of the Moon is Illuminated

Today's Extremes

State Highs State Lows

Community

WunderPhotos

Upload Photos

1,962,540 photos uploaded!

WunderBlog® & News

Nearby

Air Quality

  Air Quality AQ Index Pollutant
Not available.

Snow Depth

Station Depth Elevation

Earthquake Activity

City Distance Mag. Time & Date
Minimum magnitude displayed is 2.5.

Coastal Water Temperatures

Place Temperature

Stations

Nearby Weather Stations

Station Location Temp. Windchill Dew Point Humidity Wind Precip. Elev Updated Type
                   

Watches & Warnings

There are currently no watches in effect.